Flight Track Log - Related Links

Times and Time Zones

All times are in EDT time to prevent confusion due to time zone crossing. See the N432BG flight status page for this flight to view local times or setup timezone preferences in your user account.

Time Position Orientation Groundspeed Altitude Reporting Facility
EDT Latitude Longitude Course Direction KTS MPH feet Rate Location/Type
Wed 09:14:25 PM 37.7500 -122.2333 115° Southeast 132 152 1,300  Level Northern Cal TRACON
Wed 09:15:25 PM 37.7500 -122.1833 90° East 134 154 2,100 600 Climbing Northern Cal TRACON
Wed 09:16:25 PM 37.7333 -122.1333 113° Southeast 161 185 2,500 300 Climbing Northern Cal TRACON
Wed 09:17:25 PM 37.7333 -122.0667 90° East 173 199 2,700 500 Climbing Northern Cal TRACON
Wed 09:18:25 PM 37.7333 -122.0167 90° East 148 170 3,500 700 Climbing Northern Cal TRACON
Wed 09:19:00 PM 37.6355 -121.9849 115° Southeast  Level Estimated
Wed 09:19:25 PM 37.7167 -121.9667 113° Southeast 150 173 4,100  Level Northern Cal TRACON
Wed 09:20:25 PM 37.7000 -121.9167 113° Southeast 145 167 4,800 650 Climbing Northern Cal TRACON
Wed 09:21:25 PM 37.7000 -121.8667 90° East 142 163 5,400 595 Climbing Northern Cal TRACON
Wed 09:22:26 PM 37.6833 -121.8167 113° Southeast 143 165 6,000 645 Climbing Northern Cal TRACON
Wed 09:23:26 PM 37.6667 -121.7667 113° Southeast 144 166 6,700 450 Climbing Northern Cal TRACON
Wed 09:24:26 PM 37.6667 -121.7333 90° East 149 171 6,900 100 Climbing Northern Cal TRACON
Wed 09:25:26 PM 37.6500 -121.6667 108° East 165 190 6,900 200 Level Northern Cal TRACON
Wed 09:26:26 PM 37.6333 -121.6167 113° Southeast 163 188 7,300 300 Climbing Northern Cal TRACON
Wed 09:27:26 PM 37.6333 -121.5667 90° East 149 171 7,500 100 Climbing Northern Cal TRACON
Wed 09:28:26 PM 37.6167 -121.5167 113° Southeast 162 186 7,500  Level Northern Cal TRACON
Wed 09:29:26 PM 37.6000 -121.4500 107° East 168 193 7,500  Level Northern Cal TRACON
Wed 09:30:26 PM 37.6000 -121.4000 90° East 169 194 7,500  Level Northern Cal TRACON
Wed 09:31:26 PM 37.5833 -121.3333 107° East 171 197 7,500  Level Northern Cal TRACON
Wed 09:32:26 PM 37.5667 -121.2833 113° Southeast 169 194 7,500  Level Northern Cal TRACON
Wed 09:33:27 PM 37.5500 -121.2333 113° Southeast 170 196 7,500  Level Northern Cal TRACON
Wed 09:34:27 PM 37.5333 -121.1667 107° East 171 197 7,500  Level Northern Cal TRACON
Wed 09:35:27 PM 37.5167 -121.1167 113° Southeast 169 194 7,500  Level Northern Cal TRACON
Wed 09:36:27 PM 37.5000 -121.0500 107° East 170 196 7,500  Level Northern Cal TRACON
Wed 09:37:27 PM 37.4833 -121.0000 113° Southeast 174 200 7,500  Level Northern Cal TRACON
Wed 09:38:27 PM 37.4500 -120.9500 130° Southeast 170 196 7,500  Level Northern Cal TRACON
Wed 09:39:27 PM 37.4333 -120.9000 113° Southeast 172 198 7,500  Level Northern Cal TRACON
Wed 09:40:27 PM 37.4000 -120.8500 130° Southeast 172 198 7,500  Level Northern Cal TRACON
Wed 09:41:27 PM 37.3833 -120.8000 113° Southeast 173 199 7,500  Level Northern Cal TRACON
Wed 09:42:27 PM 37.3500 -120.7500 130° Southeast 172 198 7,500  Level Northern Cal TRACON
Wed 09:43:27 PM 37.3167 -120.7000 130° Southeast 172 198 7,500  Level Northern Cal TRACON
Wed 09:44:27 PM 37.3000 -120.6500 113° Southeast 171 197 7,500  Level Northern Cal TRACON
Wed 09:45:27 PM 37.2667 -120.6000 130° Southeast 172 198 7,500  Level Northern Cal TRACON
Wed 09:46:33 PM 37.2333 -120.5500 130° Southeast 181 208 7,500  Level Northern Cal TRACON
Wed 09:47:33 PM 37.2167 -120.5000 113° Southeast 175 201 7,500  Level Northern Cal TRACON
Wed 09:48:27 PM 37.1833 -120.4500 130° Southeast 169 194 7,500  Level Northern Cal TRACON
Wed 09:49:33 PM 37.1500 -120.4000 130° Southeast 169 194 7,500  Level Northern Cal TRACON
Wed 09:50:33 PM 37.1333 -120.3500 113° Southeast 169 194 7,500  Level Northern Cal TRACON
Wed 09:52:00 PM 37.0906 -120.2878 131° Southeast 169 194 7,500 -121 Level Oakland Center
Wed 09:53:02 PM 37.0611 -120.2375 126° Southeast 176 203 7,200 -390 Descending Oakland Center
Wed 09:54:03 PM 37.0294 -120.1786 124° Southeast 190 219 6,700 -443 Descending Oakland Center
Wed 09:55:04 PM 36.9997 -120.1236 124° Southeast 194 223 6,300 -443 Descending Oakland Center
Wed 09:56:05 PM 36.9694 -120.0647 123° Southeast 194 223 5,800 -488 Descending Oakland Center
Wed 09:57:07 PM 36.9389 -120.0103 125° Southeast 191 220 5,300 -488 Descending Oakland Center
Wed 09:58:08 PM 36.9086 -119.9531 123° Southeast 196 226 4,800 -590 Descending Oakland Center
Wed 09:59:09 PM 36.8769 -119.8992 126° Southeast 193 222 4,100 -683 Descending Oakland Center
Wed 10:00:11 PM 36.8447 -119.8408 125° Southeast 200 230 3,400 -732 Descending Oakland Center
Wed 10:01:12 PM 36.8128 -119.7803 123° Southeast 194 223 2,600 -836 Descending Oakland Center
Wed 10:02:13 PM 36.7778 -119.7467 142° Southeast 167 192 1,700 -738 Descending Oakland Center
Wed 10:03:14 PM 36.7494 -119.7211 144° Southeast 134 154 1,100 -537 Descending Oakland Center
Wed 10:04:16 PM 36.7650 -119.7006 47° Northeast 100 115 600 -484 Descending Oakland Center
Wed 10:06:00 PM 36.7764 -119.7187 308° West  Level Estimated
Wed 10:13:00 PM 36.7764 -119.7187 148° Southeast  Level Estimated

Login

Don't have an account? Register now (free) for customized features, flight alerts, and more!